sensor_id;sensor_type;location;lat;lon;timestamp;P1;durP1;ratioP1;P2;durP2;ratioP2
60641;SDS011;46837;52.446;-1.930;2022-08-19T00:00:07;2.08;;;1.80;;
60641;SDS011;46837;52.446;-1.930;2022-08-19T00:01:07;2.12;;;1.54;;
60641;SDS011;46837;52.446;-1.930;2022-08-19T00:02:07;4.78;;;2.14;;
60641;SDS011;46837;52.446;-1.930;2022-08-19T00:03:07;2.50;;;1.54;;
60641;SDS011;46837;52.446;-1.930;2022-08-19T00:04:08;2.48;;;1.58;;
60641;SDS011;46837;52.446;-1.930;2022-08-19T00:05:07;9.32;;;2.40;;
60641;SDS011;46837;52.446;-1.930;2022-08-19T00:06:07;3.90;;;1.92;;
60641;SDS011;46837;52.446;-1.930;2022-08-19T00:07:07;1.68;;;1.32;;
60641;SDS011;46837;52.446;-1.930;2022-08-19T00:08:07;7.54;;;1.96;;
60641;SDS011;46837;52.446;-1.930;2022-08-19T00:09:08;1.74;;;1.42;;
60641;SDS011;46837;52.446;-1.930;2022-08-19T00:10:07;3.20;;;2.12;;
60641;SDS011;46837;52.446;-1.930;2022-08-19T00:11:07;2.32;;;1.46;;
60641;SDS011;46837;52.446;-1.930;2022-08-19T00:12:07;6.58;;;1.72;;
60641;SDS011;46837;52.446;-1.930;2022-08-19T00:13:07;2.96;;;1.76;;
60641;SDS011;46837;52.446;-1.930;2022-08-19T00:14:08;3.24;;;1.88;;
60641;SDS011;46837;52.446;-1.930;2022-08-19T00:15:08;4.16;;;2.52;;
60641;SDS011;46837;52.446;-1.930;2022-08-19T00:16:07;2.10;;;1.64;;
60641;SDS011;46837;52.446;-1.930;2022-08-19T00:17:07;2.86;;;1.66;;
60641;SDS011;46837;52.446;-1.930;2022-08-19T00:18:07;2.92;;;1.60;;
60641;SDS011;46837;52.446;-1.930;2022-08-19T00:19:07;3.52;;;1.50;;
60641;SDS011;46837;52.446;-1.930;2022-08-19T00:20:07;3.20;;;2.08;;
60641;SDS011;46837;52.446;-1.930;2022-08-19T00:21:08;8.36;;;2.20;;
60641;SDS011;46837;52.446;-1.930;2022-08-19T00:22:07;5.12;;;1.94;;
60641;SDS011;46837;52.446;-1.930;2022-08-19T00:23:07;3.60;;;1.80;;
60641;SDS011;46837;52.446;-1.930;2022-08-19T00:24:08;4.46;;;1.60;;
60641;SDS011;46837;52.446;-1.930;2022-08-19T00:25:07;3.58;;;1.36;;
60641;SDS011;46837;52.446;-1.930;2022-08-19T00:26:07;4.86;;;1.70;;
60641;SDS011;46837;52.446;-1.930;2022-08-19T00:27:07;1.74;;;1.28;;
60641;SDS011;46837;52.446;-1.930;2022-08-19T00:28:07;3.26;;;1.68;;
60641;SDS011;46837;52.446;-1.930;2022-08-19T00:29:08;2.78;;;1.60;;
60641;SDS011;46837;52.446;-1.930;2022-08-19T00:30:07;4.42;;;1.32;;
60641;SDS011;46837;52.446;-1.930;2022-08-19T00:31:07;6.22;;;1.82;;
60641;SDS011;46837;52.446;-1.930;2022-08-19T00:32:07;4.80;;;1.54;;
60641;SDS011;46837;52.446;-1.930;2022-08-19T00:33:07;1.86;;;1.30;;
60641;SDS011;46837;52.446;-1.930;2022-08-19T00:34:07;4.04;;;1.64;;
60641;SDS011;46837;52.446;-1.930;2022-08-19T00:35:07;2.56;;;1.82;;
60641;SDS011;46837;52.446;-1.930;2022-08-19T00:36:07;2.48;;;1.28;;
60641;SDS011;46837;52.446;-1.930;2022-08-19T00:37:07;3.14;;;1.80;;
60641;SDS011;46837;52.446;-1.930;2022-08-19T00:38:07;3.92;;;1.82;;
60641;SDS011;46837;52.446;-1.930;2022-08-19T00:39:07;3.38;;;1.42;;
60641;SDS011;46837;52.446;-1.930;2022-08-19T00:40:07;5.74;;;1.66;;
60641;SDS011;46837;52.446;-1.930;2022-08-19T00:41:07;3.48;;;1.12;;
60641;SDS011;46837;52.446;-1.930;2022-08-19T00:42:07;2.16;;;1.50;;
60641;SDS011;46837;52.446;-1.930;2022-08-19T00:43:08;2.10;;;1.46;;
60641;SDS011;46837;52.446;-1.930;2022-08-19T00:44:12;4.10;;;1.64;;
60641;SDS011;46837;52.446;-1.930;2022-08-19T00:46:07;4.02;;;1.72;;
60641;SDS011;46837;52.446;-1.930;2022-08-19T00:47:07;4.70;;;1.42;;
60641;SDS011;46837;52.446;-1.930;2022-08-19T00:48:07;4.48;;;1.44;;
60641;SDS011;46837;52.446;-1.930;2022-08-19T00:49:11;4.42;;;1.46;;
60641;SDS011;46837;52.446;-1.930;2022-08-19T00:50:07;3.18;;;1.24;;
60641;SDS011;46837;52.446;-1.930;2022-08-19T00:51:07;5.32;;;2.14;;
60641;SDS011;46837;52.446;-1.930;2022-08-19T00:53:07;3.88;;;1.44;;
60641;SDS011;46837;52.446;-1.930;2022-08-19T00:54:07;3.48;;;1.42;;
60641;SDS011;46837;52.446;-1.930;2022-08-19T00:55:07;5.02;;;1.62;;
60641;SDS011;46837;52.446;-1.930;2022-08-19T00:56:07;5.50;;;1.36;;
60641;SDS011;46837;52.446;-1.930;2022-08-19T00:57:08;2.32;;;1.36;;
60641;SDS011;46837;52.446;-1.930;2022-08-19T00:58:08;4.36;;;1.96;;
60641;SDS011;46837;52.446;-1.930;2022-08-19T00:59:09;3.36;;;2.26;;
60641;SDS011;46837;52.446;-1.930;2022-08-19T01:00:11;5.32;;;1.68;;
60641;SDS011;46837;52.446;-1.930;2022-08-19T01:01:07;4.70;;;1.50;;
60641;SDS011;46837;52.446;-1.930;2022-08-19T01:02:07;5.54;;;1.52;;
60641;SDS011;46837;52.446;-1.930;2022-08-19T01:03:08;4.74;;;1.66;;
60641;SDS011;46837;52.446;-1.930;2022-08-19T01:04:07;4.02;;;1.36;;
60641;SDS011;46837;52.446;-1.930;2022-08-19T01:05:11;5.30;;;1.74;;
60641;SDS011;46837;52.446;-1.930;2022-08-19T01:06:07;4.90;;;1.72;;
60641;SDS011;46837;52.446;-1.930;2022-08-19T01:07:07;4.50;;;1.80;;
60641;SDS011;46837;52.446;-1.930;2022-08-19T01:08:07;4.96;;;1.58;;
60641;SDS011;46837;52.446;-1.930;2022-08-19T01:09:07;5.26;;;1.66;;
60641;SDS011;46837;52.446;-1.930;2022-08-19T01:10:08;3.92;;;2.02;;
60641;SDS011;46837;52.446;-1.930;2022-08-19T01:11:07;5.62;;;1.96;;
60641;SDS011;46837;52.446;-1.930;2022-08-19T01:12:07;7.84;;;1.94;;
60641;SDS011;46837;52.446;-1.930;2022-08-19T01:13:07;5.32;;;1.50;;
60641;SDS011;46837;52.446;-1.930;2022-08-19T01:14:07;3.20;;;1.76;;
60641;SDS011;46837;52.446;-1.930;2022-08-19T01:15:08;1.88;;;1.48;;
60641;SDS011;46837;52.446;-1.930;2022-08-19T01:16:08;3.96;;;1.58;;
60641;SDS011;46837;52.446;-1.930;2022-08-19T01:17:07;5.42;;;1.50;;
60641;SDS011;46837;52.446;-1.930;2022-08-19T01:18:08;5.80;;;2.06;;
60641;SDS011;46837;52.446;-1.930;2022-08-19T01:19:12;2.14;;;1.72;;
60641;SDS011;46837;52.446;-1.930;2022-08-19T01:20:09;4.30;;;1.48;;
60641;SDS011;46837;52.446;-1.930;2022-08-19T01:23:07;2.62;;;1.44;;
60641;SDS011;46837;52.446;-1.930;2022-08-19T01:24:07;3.24;;;1.72;;
60641;SDS011;46837;52.446;-1.930;2022-08-19T01:25:07;4.44;;;1.34;;
60641;SDS011;46837;52.446;-1.930;2022-08-19T01:26:07;2.86;;;1.48;;
60641;SDS011;46837;52.446;-1.930;2022-08-19T01:27:07;5.54;;;1.50;;
60641;SDS011;46837;52.446;-1.930;2022-08-19T01:28:07;3.64;;;1.40;;
60641;SDS011;46837;52.446;-1.930;2022-08-19T01:29:07;3.66;;;1.40;;
60641;SDS011;46837;52.446;-1.930;2022-08-19T01:30:07;6.40;;;2.52;;
60641;SDS011;46837;52.446;-1.930;2022-08-19T01:31:12;2.34;;;1.38;;
60641;SDS011;46837;52.446;-1.930;2022-08-19T01:32:07;5.96;;;1.88;;
60641;SDS011;46837;52.446;-1.930;2022-08-19T01:33:07;6.32;;;2.02;;
60641;SDS011;46837;52.446;-1.930;2022-08-19T01:34:07;2.62;;;1.16;;
60641;SDS011;46837;52.446;-1.930;2022-08-19T01:35:07;3.06;;;1.86;;
60641;SDS011;46837;52.446;-1.930;2022-08-19T01:36:09;6.34;;;2.12;;
60641;SDS011;46837;52.446;-1.930;2022-08-19T01:37:08;2.36;;;1.52;;
60641;SDS011;46837;52.446;-1.930;2022-08-19T01:38:10;4.74;;;1.44;;
60641;SDS011;46837;52.446;-1.930;2022-08-19T01:39:08;5.00;;;1.62;;
60641;SDS011;46837;52.446;-1.930;2022-08-19T01:40:07;7.54;;;1.76;;
60641;SDS011;46837;52.446;-1.930;2022-08-19T01:41:07;5.30;;;2.02;;
60641;SDS011;46837;52.446;-1.930;2022-08-19T01:42:08;5.80;;;1.76;;
60641;SDS011;46837;52.446;-1.930;2022-08-19T01:43:07;3.50;;;1.60;;
60641;SDS011;46837;52.446;-1.930;2022-08-19T01:44:07;2.26;;;1.78;;
60641;SDS011;46837;52.446;-1.930;2022-08-19T01:45:07;4.70;;;1.54;;
60641;SDS011;46837;52.446;-1.930;2022-08-19T01:46:07;7.06;;;1.82;;
60641;SDS011;46837;52.446;-1.930;2022-08-19T01:47:07;5.62;;;1.74;;
60641;SDS011;46837;52.446;-1.930;2022-08-19T01:48:07;5.28;;;2.18;;
60641;SDS011;46837;52.446;-1.930;2022-08-19T01:49:07;2.96;;;2.14;;
60641;SDS011;46837;52.446;-1.930;2022-08-19T01:50:07;5.24;;;1.54;;
60641;SDS011;46837;52.446;-1.930;2022-08-19T01:51:08;4.38;;;1.76;;
60641;SDS011;46837;52.446;-1.930;2022-08-19T01:52:07;2.42;;;2.12;;
60641;SDS011;46837;52.446;-1.930;2022-08-19T01:53:09;5.98;;;1.92;;
60641;SDS011;46837;52.446;-1.930;2022-08-19T01:54:07;3.46;;;1.62;;
60641;SDS011;46837;52.446;-1.930;2022-08-19T01:55:08;1.94;;;1.76;;
60641;SDS011;46837;52.446;-1.930;2022-08-19T01:56:07;2.48;;;2.16;;
60641;SDS011;46837;52.446;-1.930;2022-08-19T01:57:08;3.58;;;1.82;;
60641;SDS011;46837;52.446;-1.930;2022-08-19T01:58:12;3.78;;;1.52;;
60641;SDS011;46837;52.446;-1.930;2022-08-19T01:59:08;7.62;;;1.86;;
60641;SDS011;46837;52.446;-1.930;2022-08-19T02:00:08;4.58;;;1.72;;
60641;SDS011;46837;52.446;-1.930;2022-08-19T02:01:07;5.12;;;2.02;;
60641;SDS011;46837;52.446;-1.930;2022-08-19T02:02:08;2.10;;;1.44;;
60641;SDS011;46837;52.446;-1.930;2022-08-19T02:03:07;3.02;;;1.82;;
60641;SDS011;46837;52.446;-1.930;2022-08-19T02:04:07;1.98;;;1.44;;
60641;SDS011;46837;52.446;-1.930;2022-08-19T02:05:07;3.40;;;1.50;;
60641;SDS011;46837;52.446;-1.930;2022-08-19T02:06:07;3.38;;;1.36;;
60641;SDS011;46837;52.446;-1.930;2022-08-19T02:07:07;1.76;;;1.34;;
60641;SDS011;46837;52.446;-1.930;2022-08-19T02:08:07;4.84;;;1.50;;
60641;SDS011;46837;52.446;-1.930;2022-08-19T02:09:08;5.88;;;1.78;;
60641;SDS011;46837;52.446;-1.930;2022-08-19T02:10:08;4.78;;;1.24;;
60641;SDS011;46837;52.446;-1.930;2022-08-19T02:11:07;3.46;;;1.70;;
60641;SDS011;46837;52.446;-1.930;2022-08-19T02:12:07;3.98;;;1.46;;
60641;SDS011;46837;52.446;-1.930;2022-08-19T02:13:07;1.68;;;1.24;;
60641;SDS011;46837;52.446;-1.930;2022-08-19T02:14:07;5.10;;;2.04;;
60641;SDS011;46837;52.446;-1.930;2022-08-19T02:15:07;2.70;;;1.68;;
60641;SDS011;46837;52.446;-1.930;2022-08-19T02:16:07;1.96;;;1.56;;
60641;SDS011;46837;52.446;-1.930;2022-08-19T02:17:07;1.74;;;1.60;;
60641;SDS011;46837;52.446;-1.930;2022-08-19T02:18:07;3.90;;;1.84;;
60641;SDS011;46837;52.446;-1.930;2022-08-19T02:19:07;4.94;;;1.50;;
60641;SDS011;46837;52.446;-1.930;2022-08-19T02:20:07;4.96;;;1.66;;
60641;SDS011;46837;52.446;-1.930;2022-08-19T02:21:07;1.66;;;1.54;;
60641;SDS011;46837;52.446;-1.930;2022-08-19T02:22:07;5.02;;;1.74;;
60641;SDS011;46837;52.446;-1.930;2022-08-19T02:23:07;4.04;;;1.86;;
60641;SDS011;46837;52.446;-1.930;2022-08-19T02:24:07;2.36;;;1.80;;
60641;SDS011;46837;52.446;-1.930;2022-08-19T02:25:07;3.30;;;1.32;;
60641;SDS011;46837;52.446;-1.930;2022-08-19T02:26:07;5.46;;;1.56;;
60641;SDS011;46837;52.446;-1.930;2022-08-19T02:27:07;4.02;;;1.98;;
60641;SDS011;46837;52.446;-1.930;2022-08-19T02:28:07;2.10;;;1.76;;
60641;SDS011;46837;52.446;-1.930;2022-08-19T02:29:07;2.96;;;2.30;;
60641;SDS011;46837;52.446;-1.930;2022-08-19T02:30:08;3.78;;;2.44;;
60641;SDS011;46837;52.446;-1.930;2022-08-19T02:31:14;3.48;;;2.26;;
60641;SDS011;46837;52.446;-1.930;2022-08-19T02:32:07;5.22;;;2.72;;
60641;SDS011;46837;52.446;-1.930;2022-08-19T02:33:07;6.52;;;3.14;;
60641;SDS011;46837;52.446;-1.930;2022-08-19T02:34:07;2.58;;;1.84;;
60641;SDS011;46837;52.446;-1.930;2022-08-19T02:35:07;4.52;;;2.22;;
60641;SDS011;46837;52.446;-1.930;2022-08-19T02:36:07;3.78;;;1.82;;
60641;SDS011;46837;52.446;-1.930;2022-08-19T02:37:07;3.68;;;1.66;;
60641;SDS011;46837;52.446;-1.930;2022-08-19T02:38:11;3.60;;;2.02;;
60641;SDS011;46837;52.446;-1.930;2022-08-19T02:39:07;4.92;;;2.06;;
60641;SDS011;46837;52.446;-1.930;2022-08-19T02:40:07;3.96;;;1.48;;
60641;SDS011;46837;52.446;-1.930;2022-08-19T02:41:08;3.26;;;2.10;;
60641;SDS011;46837;52.446;-1.930;2022-08-19T02:42:07;2.24;;;1.36;;
60641;SDS011;46837;52.446;-1.930;2022-08-19T02:43:07;5.48;;;1.64;;
60641;SDS011;46837;52.446;-1.930;2022-08-19T02:44:07;4.60;;;1.80;;
60641;SDS011;46837;52.446;-1.930;2022-08-19T02:45:07;1.86;;;1.34;;
60641;SDS011;46837;52.446;-1.930;2022-08-19T02:47:07;2.44;;;1.30;;
60641;SDS011;46837;52.446;-1.930;2022-08-19T02:48:07;5.36;;;1.66;;
60641;SDS011;46837;52.446;-1.930;2022-08-19T02:49:07;9.06;;;2.80;;
60641;SDS011;46837;52.446;-1.930;2022-08-19T02:50:07;7.24;;;1.64;;
60641;SDS011;46837;52.446;-1.930;2022-08-19T02:51:07;3.58;;;1.68;;
60641;SDS011;46837;52.446;-1.930;2022-08-19T02:52:07;5.06;;;1.38;;
60641;SDS011;46837;52.446;-1.930;2022-08-19T02:53:07;4.16;;;1.78;;
60641;SDS011;46837;52.446;-1.930;2022-08-19T02:54:08;4.52;;;1.64;;
60641;SDS011;46837;52.446;-1.930;2022-08-19T02:55:07;3.66;;;1.60;;
60641;SDS011;46837;52.446;-1.930;2022-08-19T02:56:07;1.92;;;1.74;;
60641;SDS011;46837;52.446;-1.930;2022-08-19T02:57:07;3.62;;;1.56;;
60641;SDS011;46837;52.446;-1.930;2022-08-19T02:58:07;2.92;;;1.74;;
60641;SDS011;46837;52.446;-1.930;2022-08-19T02:59:09;3.00;;;1.38;;
60641;SDS011;46837;52.446;-1.930;2022-08-19T03:00:07;4.04;;;1.86;;
60641;SDS011;46837;52.446;-1.930;2022-08-19T03:01:07;4.98;;;1.94;;
60641;SDS011;46837;52.446;-1.930;2022-08-19T03:02:07;8.02;;;1.94;;
60641;SDS011;46837;52.446;-1.930;2022-08-19T03:03:07;3.38;;;1.58;;
60641;SDS011;46837;52.446;-1.930;2022-08-19T03:04:07;5.40;;;1.64;;
60641;SDS011;46837;52.446;-1.930;2022-08-19T03:05:07;4.80;;;1.70;;
60641;SDS011;46837;52.446;-1.930;2022-08-19T03:06:11;3.32;;;1.66;;
60641;SDS011;46837;52.446;-1.930;2022-08-19T03:07:07;6.64;;;1.94;;
60641;SDS011;46837;52.446;-1.930;2022-08-19T03:08:07;3.04;;;1.62;;
60641;SDS011;46837;52.446;-1.930;2022-08-19T03:09:07;4.46;;;1.50;;
60641;SDS011;46837;52.446;-1.930;2022-08-19T03:10:07;2.22;;;1.50;;
60641;SDS011;46837;52.446;-1.930;2022-08-19T03:11:11;2.32;;;1.06;;
60641;SDS011;46837;52.446;-1.930;2022-08-19T03:12:07;3.18;;;1.46;;
60641;SDS011;46837;52.446;-1.930;2022-08-19T03:13:07;5.52;;;2.40;;
60641;SDS011;46837;52.446;-1.930;2022-08-19T03:14:07;3.66;;;1.78;;
60641;SDS011;46837;52.446;-1.930;2022-08-19T03:15:07;2.36;;;1.46;;
60641;SDS011;46837;52.446;-1.930;2022-08-19T03:16:07;3.98;;;1.72;;
60641;SDS011;46837;52.446;-1.930;2022-08-19T03:17:07;4.68;;;1.68;;
60641;SDS011;46837;52.446;-1.930;2022-08-19T03:18:07;9.22;;;1.96;;
60641;SDS011;46837;52.446;-1.930;2022-08-19T03:19:07;7.00;;;1.46;;
60641;SDS011;46837;52.446;-1.930;2022-08-19T03:20:07;4.68;;;1.66;;
60641;SDS011;46837;52.446;-1.930;2022-08-19T03:21:07;3.54;;;1.32;;
60641;SDS011;46837;52.446;-1.930;2022-08-19T03:22:07;2.98;;;1.24;;
60641;SDS011;46837;52.446;-1.930;2022-08-19T03:23:07;3.62;;;1.66;;
60641;SDS011;46837;52.446;-1.930;2022-08-19T03:24:07;5.72;;;1.98;;
60641;SDS011;46837;52.446;-1.930;2022-08-19T03:25:07;4.60;;;1.68;;
60641;SDS011;46837;52.446;-1.930;2022-08-19T03:26:07;5.98;;;1.96;;
60641;SDS011;46837;52.446;-1.930;2022-08-19T03:27:07;3.08;;;1.48;;
60641;SDS011;46837;52.446;-1.930;2022-08-19T03:28:07;7.24;;;2.44;;
60641;SDS011;46837;52.446;-1.930;2022-08-19T03:29:07;4.96;;;1.96;;
60641;SDS011;46837;52.446;-1.930;2022-08-19T03:30:07;4.18;;;1.18;;
60641;SDS011;46837;52.446;-1.930;2022-08-19T03:31:09;4.70;;;1.70;;
60641;SDS011;46837;52.446;-1.930;2022-08-19T03:32:07;6.98;;;2.54;;
60641;SDS011;46837;52.446;-1.930;2022-08-19T03:33:07;7.94;;;2.36;;
60641;SDS011;46837;52.446;-1.930;2022-08-19T03:34:07;7.30;;;1.98;;
60641;SDS011;46837;52.446;-1.930;2022-08-19T03:35:07;4.82;;;1.34;;
60641;SDS011;46837;52.446;-1.930;2022-08-19T03:37:08;6.16;;;1.88;;
60641;SDS011;46837;52.446;-1.930;2022-08-19T03:38:07;5.04;;;2.06;;
60641;SDS011;46837;52.446;-1.930;2022-08-19T03:39:07;8.30;;;2.52;;
60641;SDS011;46837;52.446;-1.930;2022-08-19T03:40:07;10.26;;;2.20;;
60641;SDS011;46837;52.446;-1.930;2022-08-19T03:41:08;6.76;;;1.70;;
60641;SDS011;46837;52.446;-1.930;2022-08-19T03:42:07;8.38;;;1.66;;
60641;SDS011;46837;52.446;-1.930;2022-08-19T03:43:07;5.02;;;1.50;;
60641;SDS011;46837;52.446;-1.930;2022-08-19T03:44:07;7.02;;;1.74;;
60641;SDS011;46837;52.446;-1.930;2022-08-19T03:45:07;11.10;;;2.40;;
60641;SDS011;46837;52.446;-1.930;2022-08-19T03:46:09;7.14;;;2.02;;
60641;SDS011;46837;52.446;-1.930;2022-08-19T03:47:07;9.50;;;1.78;;
60641;SDS011;46837;52.446;-1.930;2022-08-19T03:48:07;8.90;;;1.66;;
60641;SDS011;46837;52.446;-1.930;2022-08-19T03:49:09;7.96;;;1.82;;
60641;SDS011;46837;52.446;-1.930;2022-08-19T03:50:07;13.44;;;2.90;;
60641;SDS011;46837;52.446;-1.930;2022-08-19T03:51:07;10.36;;;1.64;;
60641;SDS011;46837;52.446;-1.930;2022-08-19T03:52:08;8.66;;;2.42;;
60641;SDS011;46837;52.446;-1.930;2022-08-19T03:53:07;8.70;;;2.50;;
60641;SDS011;46837;52.446;-1.930;2022-08-19T03:54:07;7.86;;;1.96;;
60641;SDS011;46837;52.446;-1.930;2022-08-19T03:55:07;5.88;;;1.80;;
60641;SDS011;46837;52.446;-1.930;2022-08-19T03:56:08;12.06;;;1.76;;
60641;SDS011;46837;52.446;-1.930;2022-08-19T03:57:07;3.72;;;1.58;;
60641;SDS011;46837;52.446;-1.930;2022-08-19T03:58:07;6.12;;;1.76;;
60641;SDS011;46837;52.446;-1.930;2022-08-19T03:59:09;6.58;;;2.12;;
60641;SDS011;46837;52.446;-1.930;2022-08-19T04:00:07;11.12;;;3.06;;
60641;SDS011;46837;52.446;-1.930;2022-08-19T04:01:07;6.40;;;1.66;;
60641;SDS011;46837;52.446;-1.930;2022-08-19T04:02:08;5.00;;;1.52;;
60641;SDS011;46837;52.446;-1.930;2022-08-19T04:03:07;4.14;;;1.78;;
60641;SDS011;46837;52.446;-1.930;2022-08-19T04:04:07;6.46;;;1.44;;
60641;SDS011;46837;52.446;-1.930;2022-08-19T04:05:07;11.54;;;2.68;;
60641;SDS011;46837;52.446;-1.930;2022-08-19T04:06:11;11.56;;;2.86;;
60641;SDS011;46837;52.446;-1.930;2022-08-19T04:07:07;3.58;;;1.70;;
60641;SDS011;46837;52.446;-1.930;2022-08-19T04:08:07;5.70;;;2.62;;
60641;SDS011;46837;52.446;-1.930;2022-08-19T04:09:07;8.78;;;2.00;;
60641;SDS011;46837;52.446;-1.930;2022-08-19T04:10:07;10.26;;;2.68;;
60641;SDS011;46837;52.446;-1.930;2022-08-19T04:11:11;11.90;;;2.12;;
60641;SDS011;46837;52.446;-1.930;2022-08-19T04:12:07;6.84;;;1.64;;
60641;SDS011;46837;52.446;-1.930;2022-08-19T04:13:07;5.26;;;2.10;;
60641;SDS011;46837;52.446;-1.930;2022-08-19T04:14:07;8.52;;;2.32;;
60641;SDS011;46837;52.446;-1.930;2022-08-19T04:15:07;10.14;;;2.60;;
60641;SDS011;46837;52.446;-1.930;2022-08-19T04:16:07;5.84;;;1.90;;
60641;SDS011;46837;52.446;-1.930;2022-08-19T04:17:07;11.22;;;2.46;;
60641;SDS011;46837;52.446;-1.930;2022-08-19T04:18:08;6.14;;;1.82;;
60641;SDS011;46837;52.446;-1.930;2022-08-19T04:19:07;6.20;;;1.70;;
60641;SDS011;46837;52.446;-1.930;2022-08-19T04:20:07;11.70;;;2.32;;
60641;SDS011;46837;52.446;-1.930;2022-08-19T04:21:07;7.60;;;2.40;;
60641;SDS011;46837;52.446;-1.930;2022-08-19T04:22:07;9.52;;;2.52;;
60641;SDS011;46837;52.446;-1.930;2022-08-19T04:23:07;7.04;;;2.04;;
60641;SDS011;46837;52.446;-1.930;2022-08-19T04:24:07;7.00;;;2.16;;
60641;SDS011;46837;52.446;-1.930;2022-08-19T04:25:07;12.40;;;2.54;;
60641;SDS011;46837;52.446;-1.930;2022-08-19T04:26:07;11.50;;;2.38;;
60641;SDS011;46837;52.446;-1.930;2022-08-19T04:27:07;5.30;;;2.10;;
60641;SDS011;46837;52.446;-1.930;2022-08-19T04:28:07;8.70;;;1.58;;
60641;SDS011;46837;52.446;-1.930;2022-08-19T04:29:08;11.20;;;2.32;;
60641;SDS011;46837;52.446;-1.930;2022-08-19T04:30:07;12.12;;;2.88;;
60641;SDS011;46837;52.446;-1.930;2022-08-19T04:31:12;7.50;;;1.70;;
60641;SDS011;46837;52.446;-1.930;2022-08-19T04:32:07;7.56;;;2.08;;
60641;SDS011;46837;52.446;-1.930;2022-08-19T04:33:07;7.56;;;1.80;;
60641;SDS011;46837;52.446;-1.930;2022-08-19T04:34:08;10.48;;;2.36;;
60641;SDS011;46837;52.446;-1.930;2022-08-19T04:35:07;15.82;;;3.76;;
60641;SDS011;46837;52.446;-1.930;2022-08-19T04:36:07;4.88;;;1.88;;
60641;SDS011;46837;52.446;-1.930;2022-08-19T04:37:07;14.54;;;2.92;;
60641;SDS011;46837;52.446;-1.930;2022-08-19T04:38:07;10.38;;;3.12;;
60641;SDS011;46837;52.446;-1.930;2022-08-19T04:39:08;10.10;;;3.08;;
60641;SDS011;46837;52.446;-1.930;2022-08-19T04:40:11;7.28;;;2.36;;
60641;SDS011;46837;52.446;-1.930;2022-08-19T04:41:11;8.04;;;3.06;;
60641;SDS011;46837;52.446;-1.930;2022-08-19T04:42:11;5.48;;;2.38;;
60641;SDS011;46837;52.446;-1.930;2022-08-19T04:43:07;9.58;;;1.98;;
60641;SDS011;46837;52.446;-1.930;2022-08-19T04:44:07;5.00;;;1.76;;
60641;SDS011;46837;52.446;-1.930;2022-08-19T04:45:11;8.60;;;2.24;;
60641;SDS011;46837;52.446;-1.930;2022-08-19T04:46:07;8.24;;;3.04;;
60641;SDS011;46837;52.446;-1.930;2022-08-19T04:47:07;7.00;;;2.00;;
60641;SDS011;46837;52.446;-1.930;2022-08-19T04:48:07;8.24;;;2.34;;
60641;SDS011;46837;52.446;-1.930;2022-08-19T04:49:07;7.02;;;2.58;;
60641;SDS011;46837;52.446;-1.930;2022-08-19T04:50:07;8.42;;;2.38;;
60641;SDS011;46837;52.446;-1.930;2022-08-19T04:51:08;6.76;;;1.94;;
60641;SDS011;46837;52.446;-1.930;2022-08-19T04:52:07;13.96;;;2.64;;
60641;SDS011;46837;52.446;-1.930;2022-08-19T04:53:07;9.90;;;2.20;;
60641;SDS011;46837;52.446;-1.930;2022-08-19T04:54:07;7.56;;;1.94;;
60641;SDS011;46837;52.446;-1.930;2022-08-19T04:55:07;14.40;;;3.36;;
60641;SDS011;46837;52.446;-1.930;2022-08-19T04:56:08;14.50;;;2.92;;
60641;SDS011;46837;52.446;-1.930;2022-08-19T04:57:07;12.90;;;2.68;;
60641;SDS011;46837;52.446;-1.930;2022-08-19T04:58:07;6.78;;;2.32;;
60641;SDS011;46837;52.446;-1.930;2022-08-19T04:59:07;11.70;;;2.60;;
60641;SDS011;46837;52.446;-1.930;2022-08-19T05:00:10;8.94;;;2.62;;
60641;SDS011;46837;52.446;-1.930;2022-08-19T05:01:07;10.50;;;3.44;;
60641;SDS011;46837;52.446;-1.930;2022-08-19T05:02:08;7.20;;;2.28;;
60641;SDS011;46837;52.446;-1.930;2022-08-19T05:03:07;11.50;;;3.06;;
60641;SDS011;46837;52.446;-1.930;2022-08-19T05:04:07;13.20;;;2.22;;
60641;SDS011;46837;52.446;-1.930;2022-08-19T05:05:07;10.54;;;3.12;;
60641;SDS011;46837;52.446;-1.930;2022-08-19T05:06:08;7.22;;;2.46;;
60641;SDS011;46837;52.446;-1.930;2022-08-19T05:07:07;9.58;;;2.54;;
60641;SDS011;46837;52.446;-1.930;2022-08-19T05:08:07;12.42;;;2.46;;
60641;SDS011;46837;52.446;-1.930;2022-08-19T05:09:07;12.24;;;2.48;;
60641;SDS011;46837;52.446;-1.930;2022-08-19T05:10:07;9.08;;;1.76;;
60641;SDS011;46837;52.446;-1.930;2022-08-19T05:11:16;9.68;;;2.04;;
60641;SDS011;46837;52.446;-1.930;2022-08-19T05:12:07;10.06;;;2.36;;
60641;SDS011;46837;52.446;-1.930;2022-08-19T05:13:07;6.98;;;2.54;;
60641;SDS011;46837;52.446;-1.930;2022-08-19T05:14:07;11.02;;;2.74;;
60641;SDS011;46837;52.446;-1.930;2022-08-19T05:15:07;16.18;;;2.76;;
60641;SDS011;46837;52.446;-1.930;2022-08-19T05:16:07;4.92;;;2.64;;
60641;SDS011;46837;52.446;-1.930;2022-08-19T05:17:07;11.76;;;3.00;;
60641;SDS011;46837;52.446;-1.930;2022-08-19T05:18:11;10.60;;;2.94;;
60641;SDS011;46837;52.446;-1.930;2022-08-19T05:19:11;8.86;;;2.38;;
60641;SDS011;46837;52.446;-1.930;2022-08-19T05:20:11;7.24;;;1.80;;
60641;SDS011;46837;52.446;-1.930;2022-08-19T05:21:11;9.94;;;2.32;;
60641;SDS011;46837;52.446;-1.930;2022-08-19T05:22:11;12.00;;;2.58;;
60641;SDS011;46837;52.446;-1.930;2022-08-19T05:23:07;10.74;;;2.24;;
60641;SDS011;46837;52.446;-1.930;2022-08-19T05:24:09;11.68;;;2.90;;
60641;SDS011;46837;52.446;-1.930;2022-08-19T05:25:08;16.68;;;2.64;;
60641;SDS011;46837;52.446;-1.930;2022-08-19T05:26:07;6.00;;;2.46;;
60641;SDS011;46837;52.446;-1.930;2022-08-19T05:27:07;12.50;;;2.76;;
60641;SDS011;46837;52.446;-1.930;2022-08-19T05:28:07;11.56;;;3.02;;
60641;SDS011;46837;52.446;-1.930;2022-08-19T05:29:07;8.08;;;3.26;;
60641;SDS011;46837;52.446;-1.930;2022-08-19T05:30:07;13.92;;;3.04;;
60641;SDS011;46837;52.446;-1.930;2022-08-19T05:31:07;11.14;;;1.92;;
60641;SDS011;46837;52.446;-1.930;2022-08-19T05:32:07;13.14;;;3.04;;
60641;SDS011;46837;52.446;-1.930;2022-08-19T05:33:07;11.06;;;2.08;;
60641;SDS011;46837;52.446;-1.930;2022-08-19T05:34:07;8.12;;;2.20;;
60641;SDS011;46837;52.446;-1.930;2022-08-19T05:35:07;10.96;;;2.74;;
60641;SDS011;46837;52.446;-1.930;2022-08-19T05:36:08;12.06;;;2.50;;
60641;SDS011;46837;52.446;-1.930;2022-08-19T05:37:07;9.60;;;2.40;;
60641;SDS011;46837;52.446;-1.930;2022-08-19T05:38:07;14.02;;;3.56;;
60641;SDS011;46837;52.446;-1.930;2022-08-19T05:39:07;8.52;;;2.20;;
60641;SDS011;46837;52.446;-1.930;2022-08-19T05:40:07;10.66;;;2.10;;
60641;SDS011;46837;52.446;-1.930;2022-08-19T05:41:10;11.58;;;2.96;;
60641;SDS011;46837;52.446;-1.930;2022-08-19T05:42:08;8.24;;;2.64;;
60641;SDS011;46837;52.446;-1.930;2022-08-19T05:43:07;15.14;;;3.62;;
60641;SDS011;46837;52.446;-1.930;2022-08-19T05:44:10;11.42;;;2.60;;
60641;SDS011;46837;52.446;-1.930;2022-08-19T05:45:07;5.86;;;3.04;;
60641;SDS011;46837;52.446;-1.930;2022-08-19T05:46:07;7.00;;;2.20;;
60641;SDS011;46837;52.446;-1.930;2022-08-19T05:47:07;12.24;;;2.48;;
60641;SDS011;46837;52.446;-1.930;2022-08-19T05:48:07;10.14;;;2.42;;
60641;SDS011;46837;52.446;-1.930;2022-08-19T05:49:07;11.08;;;2.58;;
60641;SDS011;46837;52.446;-1.930;2022-08-19T05:50:07;14.02;;;2.38;;
60641;SDS011;46837;52.446;-1.930;2022-08-19T05:51:07;10.08;;;2.32;;
60641;SDS011;46837;52.446;-1.930;2022-08-19T05:52:08;11.10;;;3.74;;
60641;SDS011;46837;52.446;-1.930;2022-08-19T05:53:07;10.70;;;2.06;;
60641;SDS011;46837;52.446;-1.930;2022-08-19T05:54:07;10.76;;;2.28;;
60641;SDS011;46837;52.446;-1.930;2022-08-19T05:55:07;16.56;;;2.08;;
60641;SDS011;46837;52.446;-1.930;2022-08-19T05:56:07;12.00;;;2.56;;
60641;SDS011;46837;52.446;-1.930;2022-08-19T05:57:07;9.48;;;2.26;;
60641;SDS011;46837;52.446;-1.930;2022-08-19T05:58:08;17.80;;;3.16;;
60641;SDS011;46837;52.446;-1.930;2022-08-19T05:59:11;11.60;;;2.94;;
60641;SDS011;46837;52.446;-1.930;2022-08-19T06:00:09;8.28;;;2.14;;